Time;durP1;ratioP1;P1;durP2;ratioP2;P2;SDS_P1;SDS_P2;PMS_P1;PMS_P2;Temp;Humidity;BMP_temperature;BMP_pressure;BME280_temperature;BME280_humidity;BME280_pressure;Samples;Min_cycle;Max_cycle;Signal;HPM_P1;HPM_P2
2023/05/05 00:01:08;;;;;;;;;;;13.30;99.90;;;;;;5018563;28;19925;-78
2023/05/05 00:03:35;;;;;;;;;;;13.20;99.90;;;;;;5022746;28;20430;-78
2023/05/05 00:06:02;;;;;;;;;;;13.20;99.90;;;;;;5022028;28;19943;-78
2023/05/05 00:08:28;;;;;;;;;;;13.20;99.90;;;;;;5020490;28;20036;-78
2023/05/05 00:10:56;;;;;;;;;;;13.20;99.90;;;;;;5001377;28;19929;-78
2023/05/05 00:13:23;;;;;;;;;;;13.20;99.90;;;;;;5021815;28;19924;-78
2023/05/05 00:15:50;;;;;;;;;;;13.20;99.90;;;;;;5003409;28;19925;-78
2023/05/05 00:18:17;;;;;;;;;;;13.20;99.90;;;;;;5020553;28;19943;-78
2023/05/05 00:20:46;;;;;;;;;;;13.20;99.90;;;;;;5019726;28;20343;-78
2023/05/05 00:23:13;;;;;;;;;;;13.20;99.90;;;;;;5019258;28;19991;-78
2023/05/05 00:25:40;;;;;;;;;;;13.10;99.90;;;;;;5019050;28;20377;-78
2023/05/05 00:28:06;;;;;;;;;;;13.10;99.90;;;;;;5018343;28;19921;-78
2023/05/05 00:33:46;;;;;;;;;;;13.00;99.90;;;;;;5011064;28;20382;-78
2023/05/05 00:36:13;;;;;;;;;;;13.00;99.90;;;;;;5019822;28;19921;-78
2023/05/05 00:38:40;;;;;;;;;;;12.90;99.90;;;;;;5037625;28;20176;-79
2023/05/05 00:41:07;;;;;;;;;;;12.90;99.90;;;;;;5018036;28;19929;-78
2023/05/05 00:43:33;;;;;;;;;;;12.90;99.90;;;;;;5020212;28;20004;-78
2023/05/05 00:46:01;;;;;;;;;;;12.80;99.90;;;;;;5019944;28;20008;-78
2023/05/05 00:48:28;;;;;;;;;;;12.80;99.90;;;;;;5004120;28;20013;-78
2023/05/05 00:50:55;;;;;;;;;;;12.80;99.90;;;;;;5003307;28;19960;-78
2023/05/05 00:53:21;;;;;;;;;;;12.70;99.90;;;;;;5018175;28;19947;-78
2023/05/05 00:55:48;;;;;;;;;;;12.70;99.90;;;;;;5018318;28;19932;-78
2023/05/05 00:58:15;;;;;;;;;;;12.70;99.90;;;;;;5019753;28;19928;-79
2023/05/05 01:00:41;;;;;;;;;;;12.60;99.90;;;;;;5002876;28;20406;-78
2023/05/05 01:03:08;;;;;;;;;;;12.60;99.90;;;;;;5017727;28;20368;-79
2023/05/05 01:05:41;;;;;;;;;;;12.60;99.90;;;;;;5015536;28;19925;-78
2023/05/05 01:08:14;;;;;;;;;;;12.60;99.90;;;;;;5036930;28;20700;-79
2023/05/05 01:10:45;;;;;;;;;;;12.60;99.90;;;;;;5017881;28;19963;-79
2023/05/05 01:13:20;;;;;;;;;;;12.50;99.90;;;;;;5017167;28;19929;-79
2023/05/05 01:15:52;;;;;;;;;;;12.50;99.90;;;;;;5013150;28;20385;-79
2023/05/05 01:18:37;;;;;;;;;;;12.50;99.90;;;;;;5020621;28;19949;-79
2023/05/05 01:21:07;;;;;;;;;;;12.40;99.90;;;;;;5018759;28;20066;-79
2023/05/05 01:24:21;;;;;;;;;;;12.40;99.90;;;;;;5019883;28;19929;-79
2023/05/05 01:26:59;;;;;;;;;;;12.30;99.90;;;;;;5001087;28;20538;-80
2023/05/05 01:29:29;;;;;;;;;;;12.30;99.90;;;;;;5013663;28;19925;-78
2023/05/05 01:32:00;;;;;;;;;;;12.30;99.90;;;;;;4325495;28;10000607;-78
2023/05/05 01:34:28;;;;;;;;;;;12.20;99.90;;;;;;5028176;28;19925;-79
2023/05/05 01:37:01;;;;;;;;;;;12.20;99.90;;;;;;5022000;28;19921;-79
2023/05/05 01:39:29;;;;;;;;;;;12.30;99.90;;;;;;5021404;28;19975;-78
2023/05/05 01:41:55;;;;;;;;;;;12.20;99.90;;;;;;5004586;28;19921;-78
2023/05/05 01:44:22;;;;;;;;;;;12.30;99.90;;;;;;5023441;28;19975;-79
2023/05/05 01:46:49;;;;;;;;;;;12.20;99.90;;;;;;5021178;28;19921;-78
2023/05/05 01:49:15;;;;;;;;;;;12.20;99.90;;;;;;5020817;28;19943;-78
2023/05/05 01:51:42;;;;;;;;;;;12.20;99.90;;;;;;5018863;28;19981;-78
2023/05/05 01:54:09;;;;;;;;;;;12.20;99.90;;;;;;5012036;28;20012;-78
2023/05/05 01:56:36;;;;;;;;;;;12.10;99.90;;;;;;5021774;28;19921;-78
2023/05/05 01:59:03;;;;;;;;;;;12.10;99.90;;;;;;5021910;28;19921;-78
2023/05/05 02:01:30;;;;;;;;;;;12.10;99.90;;;;;;5026808;28;19931;-78
2023/05/05 02:03:56;;;;;;;;;;;12.10;99.90;;;;;;5021042;28;20321;-78
2023/05/05 02:06:23;;;;;;;;;;;12.10;99.90;;;;;;5037483;28;19921;-78
2023/05/05 02:08:50;;;;;;;;;;;12.10;99.90;;;;;;5023231;28;19924;-78
2023/05/05 02:11:16;;;;;;;;;;;12.10;99.90;;;;;;5021594;28;19995;-78
2023/05/05 02:13:43;;;;;;;;;;;12.00;99.90;;;;;;5018039;28;20305;-78
2023/05/05 02:16:10;;;;;;;;;;;12.00;99.90;;;;;;5021899;28;19924;-78
2023/05/05 02:18:37;;;;;;;;;;;12.00;99.90;;;;;;5023929;28;19921;-79
2023/05/05 02:21:04;;;;;;;;;;;11.90;99.90;;;;;;5022240;28;19968;-79
2023/05/05 02:23:31;;;;;;;;;;;11.90;99.90;;;;;;5019646;28;19959;-79
2023/05/05 02:25:59;;;;;;;;;;;11.90;99.90;;;;;;5017997;28;20015;-79
2023/05/05 02:28:49;;;;;;;;;;;11.90;99.90;;;;;;5023096;28;20028;-79
2023/05/05 02:31:16;;;;;;;;;;;11.90;99.90;;;;;;5022154;28;19937;-79
2023/05/05 02:33:43;;;;;;;;;;;11.90;99.90;;;;;;5021985;28;19943;-79
2023/05/05 02:36:19;;;;;;;;;;;11.90;99.90;;;;;;5021753;28;19925;-79
2023/05/05 02:38:46;;;;;;;;;;;11.90;99.90;;;;;;5021645;28;19928;-79
2023/05/05 02:41:15;;;;;;;;;;;12.00;99.90;;;;;;5020733;28;19928;-79
2023/05/05 02:43:42;;;;;;;;;;;12.00;99.90;;;;;;5018128;28;19941;-79
2023/05/05 02:46:08;;;;;;;;;;;12.00;99.90;;;;;;5019992;28;20054;-79
2023/05/05 02:48:35;;;;;;;;;;;12.10;99.90;;;;;;5023546;28;19925;-79
2023/05/05 02:51:02;;;;;;;;;;;12.20;99.90;;;;;;5021140;28;19928;-79
2023/05/05 02:53:28;;;;;;;;;;;12.20;99.90;;;;;;5022196;28;19978;-79
2023/05/05 02:56:14;;;;;;;;;;;12.20;99.90;;;;;;5019953;28;20469;-79
2023/05/05 02:58:45;;;;;;;;;;;12.30;99.90;;;;;;5022613;28;19921;-79
2023/05/05 03:01:11;;;;;;;;;;;12.40;99.90;;;;;;5018996;28;19925;-79
2023/05/05 03:03:39;;;;;;;;;;;12.40;99.90;;;;;;5023023;28;20442;-78
2023/05/05 03:06:13;;;;;;;;;;;12.40;99.90;;;;;;5021119;28;20041;-78
2023/05/05 03:08:55;;;;;;;;;;;12.50;99.90;;;;;;5025363;28;19971;-78
2023/05/05 03:11:26;;;;;;;;;;;12.50;99.90;;;;;;5022527;28;19999;-78
2023/05/05 03:14:12;;;;;;;;;;;12.50;99.90;;;;;;5024645;28;20087;-78
2023/05/05 03:16:39;;;;;;;;;;;12.50;99.90;;;;;;5006342;28;19988;-78
2023/05/05 03:19:07;;;;;;;;;;;12.60;99.90;;;;;;5024575;28;20008;-78
2023/05/05 03:21:34;;;;;;;;;;;12.60;99.90;;;;;;5025665;28;20002;-78
2023/05/05 03:24:10;;;;;;;;;;;12.60;99.90;;;;;;5022886;28;20406;-78
2023/05/05 03:26:36;;;;;;;;;;;12.60;99.90;;;;;;5025628;28;20060;-78
2023/05/05 03:29:05;;;;;;;;;;;12.60;99.90;;;;;;5031448;28;19921;-78
2023/05/05 03:31:32;;;;;;;;;;;12.60;99.90;;;;;;5023653;28;19964;-78
2023/05/05 03:33:59;;;;;;;;;;;12.70;99.90;;;;;;5022493;28;19921;-78
2023/05/05 03:36:26;;;;;;;;;;;12.70;99.90;;;;;;5025588;28;20493;-78
2023/05/05 03:38:55;;;;;;;;;;;12.70;99.90;;;;;;5026540;28;20046;-78
2023/05/05 03:41:22;;;;;;;;;;;12.80;99.90;;;;;;5022172;28;20514;-78
2023/05/05 03:43:49;;;;;;;;;;;12.80;99.90;;;;;;5024853;28;20028;-78
2023/05/05 03:46:16;;;;;;;;;;;12.80;99.90;;;;;;4346423;28;10000741;-78
2023/05/05 03:48:43;;;;;;;;;;;12.80;99.90;;;;;;5027413;28;20348;-78
2023/05/05 03:51:09;;;;;;;;;;;12.90;99.90;;;;;;5026049;28;20472;-78
2023/05/05 03:53:36;;;;;;;;;;;12.90;99.90;;;;;;5026750;28;20019;-78
2023/05/05 03:56:03;;;;;;;;;;;12.90;99.90;;;;;;5025417;28;20423;-78
2023/05/05 03:58:30;;;;;;;;;;;12.90;99.90;;;;;;5027717;28;20568;-77
2023/05/05 04:00:56;;;;;;;;;;;12.90;99.90;;;;;;5025783;28;19924;-78
2023/05/05 04:03:23;;;;;;;;;;;12.90;99.90;;;;;;5027969;28;19925;-77
2023/05/05 04:05:50;;;;;;;;;;;12.90;99.90;;;;;;5026411;28;19948;-77
2023/05/05 04:08:16;;;;;;;;;;;12.80;99.90;;;;;;5010453;28;19973;-78
2023/05/05 04:10:43;;;;;;;;;;;12.80;99.90;;;;;;5041029;28;19921;-77
2023/05/05 04:13:10;;;;;;;;;;;12.90;99.90;;;;;;5010466;28;19921;-77
2023/05/05 04:15:37;;;;;;;;;;;12.80;99.90;;;;;;5027584;28;20058;-78
2023/05/05 04:18:04;;;;;;;;;;;12.80;99.90;;;;;;5026100;28;19952;-78
2023/05/05 04:20:33;;;;;;;;;;;12.80;99.90;;;;;;5026555;28;19946;-77
2023/05/05 04:23:00;;;;;;;;;;;12.70;99.90;;;;;;5024689;28;19937;-77
2023/05/05 04:25:26;;;;;;;;;;;12.70;99.90;;;;;;5042698;28;20032;-78
2023/05/05 04:27:53;;;;;;;;;;;12.70;99.90;;;;;;5059192;28;19921;-78
2023/05/05 04:30:20;;;;;;;;;;;12.60;99.90;;;;;;5027488;28;19952;-78
2023/05/05 04:32:47;;;;;;;;;;;12.60;99.90;;;;;;5027162;28;20008;-77
2023/05/05 04:35:14;;;;;;;;;;;12.60;99.90;;;;;;5027673;28;19928;-78
2023/05/05 04:37:41;;;;;;;;;;;12.60;99.90;;;;;;5026140;28;20016;-78
2023/05/05 04:40:08;;;;;;;;;;;12.60;99.90;;;;;;5026750;28;19921;-78
2023/05/05 04:42:35;;;;;;;;;;;12.70;99.90;;;;;;5024628;28;19921;-77
2023/05/05 04:45:02;;;;;;;;;;;12.60;99.90;;;;;;5025880;28;19924;-77
2023/05/05 04:47:29;;;;;;;;;;;12.60;99.90;;;;;;5024093;28;19940;-77
2023/05/05 04:49:55;;;;;;;;;;;12.70;99.90;;;;;;5019549;28;19921;-78
2023/05/05 04:52:22;;;;;;;;;;;12.70;99.90;;;;;;5023734;28;20051;-78
2023/05/05 04:54:49;;;;;;;;;;;12.80;99.90;;;;;;5022441;28;20276;-78
2023/05/05 04:57:15;;;;;;;;;;;12.80;99.90;;;;;;5019692;28;19933;-78
2023/05/05 04:59:42;;;;;;;;;;;12.90;99.90;;;;;;5023785;28;20319;-77
2023/05/05 05:02:09;;;;;;;;;;;12.90;99.90;;;;;;5020454;28;19983;-78
2023/05/05 05:04:36;;;;;;;;;;;13.00;99.90;;;;;;5015261;28;19925;-78
2023/05/05 05:07:02;;;;;;;;;;;13.00;99.90;;;;;;5019658;28;19931;-77
2023/05/05 05:09:29;;;;;;;;;;;13.10;99.90;;;;;;5020356;28;20036;-79
2023/05/05 05:11:59;;;;;;;;;;;13.10;99.90;;;;;;5018367;28;20374;-77
2023/05/05 05:14:27;;;;;;;;;;;13.10;99.90;;;;;;5020210;28;19924;-77
2023/05/05 05:16:53;;;;;;;;;;;13.10;99.90;;;;;;5018721;28;20284;-77
2023/05/05 05:19:20;;;;;;;;;;;13.20;99.90;;;;;;5017810;28;20013;-77
2023/05/05 05:21:47;;;;;;;;;;;13.20;99.90;;;;;;5016277;28;19955;-77
2023/05/05 05:24:13;;;;;;;;;;;13.30;99.90;;;;;;5016003;28;19964;-76
2023/05/05 05:26:40;;;;;;;;;;;13.30;99.90;;;;;;5015698;28;19949;-78
2023/05/05 05:29:07;;;;;;;;;;;13.40;99.90;;;;;;5014670;28;20638;-78
2023/05/05 05:31:35;;;;;;;;;;;13.50;99.90;;;;;;5015189;28;20035;-77
2023/05/05 05:34:02;;;;;;;;;;;13.50;99.90;;;;;;5013980;28;20024;-78
2023/05/05 05:36:30;;;;;;;;;;;13.70;99.90;;;;;;5032335;28;20357;-77
2023/05/05 05:38:57;;;;;;;;;;;13.80;99.90;;;;;;5017132;28;20392;-78
2023/05/05 05:41:24;;;;;;;;;;;13.90;99.90;;;;;;5014679;28;20054;-77
2023/05/05 05:43:50;;;;;;;;;;;13.90;99.90;;;;;;5016778;28;20474;-77
2023/05/05 05:46:18;;;;;;;;;;;14.00;99.90;;;;;;5016020;28;19937;-78
2023/05/05 05:48:44;;;;;;;;;;;13.90;99.90;;;;;;5015849;28;19931;-78
2023/05/05 05:51:11;;;;;;;;;;;14.00;99.90;;;;;;5015541;28;20050;-78
2023/05/05 05:53:38;;;;;;;;;;;14.00;99.90;;;;;;5015508;28;19932;-78
2023/05/05 05:56:05;;;;;;;;;;;14.10;99.90;;;;;;5015166;28;19925;-78
2023/05/05 05:58:32;;;;;;;;;;;14.10;99.90;;;;;;4994769;28;19925;-78
2023/05/05 06:00:59;;;;;;;;;;;14.10;99.90;;;;;;5012553;28;20293;-78
2023/05/05 06:03:25;;;;;;;;;;;14.10;99.90;;;;;;5016538;28;19925;-78
2023/05/05 06:05:52;;;;;;;;;;;14.10;99.90;;;;;;5016280;28;19933;-78
2023/05/05 06:08:19;;;;;;;;;;;14.10;99.90;;;;;;5005768;28;20557;-78
2023/05/05 06:10:48;;;;;;;;;;;14.20;99.90;;;;;;5014410;28;19935;-77
2023/05/05 06:13:15;;;;;;;;;;;14.30;99.90;;;;;;5031911;28;19932;-78
2023/05/05 06:15:42;;;;;;;;;;;14.40;99.90;;;;;;5015311;28;20024;-78
2023/05/05 06:18:09;;;;;;;;;;;14.40;99.90;;;;;;5015786;28;20238;-79
2023/05/05 06:20:36;;;;;;;;;;;14.40;99.90;;;;;;5017234;28;20361;-78
2023/05/05 06:23:02;;;;;;;;;;;14.40;99.90;;;;;;5007807;28;19961;-78
2023/05/05 06:25:29;;;;;;;;;;;14.40;99.90;;;;;;5015081;28;19932;-77
2023/05/05 06:27:56;;;;;;;;;;;14.40;99.90;;;;;;5017395;28;20012;-78
2023/05/05 06:30:24;;;;;;;;;;;14.40;99.90;;;;;;5016874;28;20331;-78
2023/05/05 06:32:53;;;;;;;;;;;14.50;99.90;;;;;;5030181;28;19925;-77
2023/05/05 06:35:20;;;;;;;;;;;14.40;99.90;;;;;;5029519;28;19986;-77
2023/05/05 06:37:47;;;;;;;;;;;14.50;99.90;;;;;;5013713;28;20337;-77
2023/05/05 06:40:14;;;;;;;;;;;14.50;99.90;;;;;;5013349;28;20108;-77
2023/05/05 06:42:41;;;;;;;;;;;14.50;99.90;;;;;;5014916;28;19925;-78
2023/05/05 06:45:08;;;;;;;;;;;14.60;99.90;;;;;;5013840;28;20206;-77
2023/05/05 06:47:35;;;;;;;;;;;14.70;99.90;;;;;;5015813;28;19936;-78
2023/05/05 06:50:02;;;;;;;;;;;14.80;99.90;;;;;;5033779;28;20371;-78
2023/05/05 06:52:29;;;;;;;;;;;14.80;99.90;;;;;;5014313;28;19929;-78
2023/05/05 06:54:55;;;;;;;;;;;14.80;99.90;;;;;;5012930;28;20455;-78
2023/05/05 06:57:22;;;;;;;;;;;14.80;99.90;;;;;;5013032;28;20344;-78
2023/05/05 06:59:49;;;;;;;;;;;14.90;99.90;;;;;;5030013;28;19921;-78
2023/05/05 07:02:16;;;;;;;;;;;14.90;99.90;;;;;;5012851;28;20785;-77
2023/05/05 07:04:43;;;;;;;;;;;15.00;99.90;;;;;;5012433;28;20399;-78
2023/05/05 07:07:09;;;;;;;;;;;15.10;99.90;;;;;;5016635;28;20023;-78
2023/05/05 07:09:36;;;;;;;;;;;15.10;99.90;;;;;;5014949;28;19932;-78
2023/05/05 07:12:03;;;;;;;;;;;15.20;99.90;;;;;;5014852;28;19963;-78
2023/05/05 07:14:29;;;;;;;;;;;15.20;99.90;;;;;;5014246;28;19997;-78
2023/05/05 07:16:56;;;;;;;;;;;15.20;99.90;;;;;;5015198;28;19928;-78
2023/05/05 07:19:23;;;;;;;;;;;15.30;99.90;;;;;;5016288;28;20020;-78
2023/05/05 07:21:50;;;;;;;;;;;15.30;99.90;;;;;;5015039;28;20359;-78
2023/05/05 07:24:17;;;;;;;;;;;15.30;99.90;;;;;;5013566;28;20517;-77
2023/05/05 07:26:44;;;;;;;;;;;15.40;99.90;;;;;;5015481;28;20006;-78
2023/05/05 07:29:10;;;;;;;;;;;15.50;99.90;;;;;;5016361;28;19948;-78
2023/05/05 07:31:37;;;;;;;;;;;15.60;99.90;;;;;;5015121;28;20794;-78
2023/05/05 07:34:04;;;;;;;;;;;15.60;99.90;;;;;;5013842;28;20361;-78
2023/05/05 07:36:31;;;;;;;;;;;15.60;99.90;;;;;;5010665;28;20016;-77
2023/05/05 07:38:59;;;;;;;;;;;15.60;99.90;;;;;;5012185;28;19921;-78
2023/05/05 07:41:26;;;;;;;;;;;15.70;99.90;;;;;;5016243;28;19925;-77
2023/05/05 07:43:52;;;;;;;;;;;15.80;99.90;;;;;;5015654;28;20001;-78
2023/05/05 07:46:19;;;;;;;;;;;15.80;99.90;;;;;;5012867;28;20036;-78
2023/05/05 07:48:46;;;;;;;;;;;15.80;99.90;;;;;;5013690;28;20030;-77
2023/05/05 07:51:13;;;;;;;;;;;15.70;99.90;;;;;;5011856;28;20059;-77
2023/05/05 07:53:39;;;;;;;;;;;15.70;99.90;;;;;;5014601;28;19928;-77
2023/05/05 07:56:07;;;;;;;;;;;15.70;99.90;;;;;;5018127;28;19925;-78
2023/05/05 07:58:35;;;;;;;;;;;15.70;99.90;;;;;;5021084;28;19964;-77
2023/05/05 08:01:05;;;;;;;;;;;15.70;99.90;;;;;;5018273;28;20384;-78
2023/05/05 08:03:32;;;;;;;;;;;15.70;99.90;;;;;;5032830;28;19973;-78
2023/05/05 08:06:04;;;;;;;;;;;15.70;99.90;;;;;;5014335;28;19931;-78
2023/05/05 08:08:31;;;;;;;;;;;15.80;99.90;;;;;;5033740;28;20245;-79
2023/05/05 08:10:58;;;;;;;;;;;15.80;99.90;;;;;;4998181;28;19954;-77
2023/05/05 08:13:24;;;;;;;;;;;16.00;99.90;;;;;;5016571;28;19971;-77
2023/05/05 08:15:51;;;;;;;;;;;16.20;99.90;;;;;;5014442;28;19931;-77
2023/05/05 08:18:18;;;;;;;;;;;16.30;99.90;;;;;;5017370;28;19925;-77
2023/05/05 08:20:45;;;;;;;;;;;16.30;99.90;;;;;;5018524;28;19925;-78
2023/05/05 08:23:12;;;;;;;;;;;16.20;99.90;;;;;;5016166;28;20594;-78
2023/05/05 08:25:39;;;;;;;;;;;16.00;99.90;;;;;;5010826;28;19928;-78
2023/05/05 08:28:06;;;;;;;;;;;15.90;99.90;;;;;;5016532;28;19960;-78
2023/05/05 08:30:33;;;;;;;;;;;16.00;99.90;;;;;;5015601;28;20893;-77
2023/05/05 08:32:59;;;;;;;;;;;16.10;99.90;;;;;;5015402;28;20073;-78
2023/05/05 08:35:26;;;;;;;;;;;16.20;99.90;;;;;;5014834;28;20023;-78
2023/05/05 08:37:53;;;;;;;;;;;16.30;99.90;;;;;;5025063;28;20272;-78
2023/05/05 08:40:25;;;;;;;;;;;16.40;99.90;;;;;;5014331;28;19936;-78
2023/05/05 08:42:51;;;;;;;;;;;16.30;99.90;;;;;;5004491;28;19925;-78
2023/05/05 08:45:18;;;;;;;;;;;16.50;99.90;;;;;;5013635;28;20435;-78
2023/05/05 08:47:45;;;;;;;;;;;16.70;99.90;;;;;;5006514;28;19939;-77
2023/05/05 08:50:12;;;;;;;;;;;16.80;99.90;;;;;;5015453;28;19934;-79
2023/05/05 08:52:40;;;;;;;;;;;17.00;99.90;;;;;;5015656;28;21449;-78
2023/05/05 08:55:27;;;;;;;;;;;17.20;99.90;;;;;;5012238;28;19932;-78
2023/05/05 08:57:55;;;;;;;;;;;17.20;99.90;;;;;;5013213;28;19925;-78
2023/05/05 09:00:22;;;;;;;;;;;17.20;99.90;;;;;;5014734;28;19929;-78
2023/05/05 09:02:48;;;;;;;;;;;17.10;99.90;;;;;;5015333;28;20031;-78
2023/05/05 09:05:16;;;;;;;;;;;17.10;99.90;;;;;;5013799;28;20287;-79
2023/05/05 09:07:42;;;;;;;;;;;17.10;99.90;;;;;;5013229;28;19933;-79
2023/05/05 09:10:11;;;;;;;;;;;17.20;99.90;;;;;;5014417;28;19925;-78
2023/05/05 09:12:40;;;;;;;;;;;17.40;99.90;;;;;;5015878;28;20388;-79
2023/05/05 09:15:11;;;;;;;;;;;17.60;99.90;;;;;;5010545;28;19933;-78
2023/05/05 09:17:38;;;;;;;;;;;17.90;99.90;;;;;;5017503;28;20030;-79
2023/05/05 09:20:06;;;;;;;;;;;18.10;99.90;;;;;;5013764;28;19921;-79
2023/05/05 09:22:33;;;;;;;;;;;18.20;99.90;;;;;;5032000;28;19937;-78
2023/05/05 09:25:00;;;;;;;;;;;18.10;99.90;;;;;;5016237;28;19935;-78
2023/05/05 09:27:27;;;;;;;;;;;17.90;99.90;;;;;;5016315;28;19932;-78
2023/05/05 09:29:55;;;;;;;;;;;17.80;99.90;;;;;;5016445;28;20035;-78
2023/05/05 09:32:21;;;;;;;;;;;17.80;99.90;;;;;;5016460;28;19933;-77
2023/05/05 09:34:57;;;;;;;;;;;17.80;99.90;;;;;;5014615;28;19928;-77
2023/05/05 09:37:28;;;;;;;;;;;17.90;99.90;;;;;;5015115;28;19929;-78
2023/05/05 09:39:55;;;;;;;;;;;18.00;99.90;;;;;;5021981;28;20006;-85
2023/05/05 09:42:22;;;;;;;;;;;18.20;99.90;;;;;;5016462;28;19925;-77
2023/05/05 09:44:50;;;;;;;;;;;18.30;99.90;;;;;;5031275;28;20074;-77
2023/05/05 09:47:17;;;;;;;;;;;18.30;99.90;;;;;;5014999;28;19935;-78
2023/05/05 09:49:56;;;;;;;;;;;18.30;99.90;;;;;;5013998;28;19928;-78
2023/05/05 09:52:23;;;;;;;;;;;18.30;99.90;;;;;;5013614;28;19944;-78
2023/05/05 09:54:54;;;;;;;;;;;18.50;99.90;;;;;;5015141;28;20326;-77
2023/05/05 09:57:28;;;;;;;;;;;18.60;99.90;;;;;;5014951;28;20539;-86
2023/05/05 09:59:56;;;;;;;;;;;18.70;99.90;;;;;;5014118;28;19925;-79
2023/05/05 10:02:30;;;;;;;;;;;18.80;99.90;;;;;;5007796;28;19955;-78
2023/05/05 10:05:03;;;;;;;;;;;18.80;99.90;;;;;;5016837;28;19987;-78
2023/05/05 10:07:30;;;;;;;;;;;19.00;99.90;;;;;;5015182;28;20039;-78
2023/05/05 10:09:57;;;;;;;;;;;19.20;99.90;;;;;;5027184;28;20048;-78
2023/05/05 10:12:24;;;;;;;;;;;19.40;99.90;;;;;;5012349;28;19929;-78
2023/05/05 10:14:54;;;;;;;;;;;19.50;99.90;;;;;;5008679;28;20044;-78
2023/05/05 10:17:21;;;;;;;;;;;19.60;99.90;;;;;;5014292;28;20070;-78
2023/05/05 10:19:51;;;;;;;;;;;19.70;99.90;;;;;;5018947;28;19925;-78
2023/05/05 10:22:18;;;;;;;;;;;19.70;99.90;;;;;;5011685;28;20095;-78
2023/05/05 10:24:46;;;;;;;;;;;19.80;99.90;;;;;;5031853;28;20011;-79
2023/05/05 10:27:22;;;;;;;;;;;19.80;99.90;;;;;;4996604;28;20349;-78
2023/05/05 10:30:02;;;;;;;;;;;19.70;99.90;;;;;;5009179;28;20436;-77
2023/05/05 10:32:48;;;;;;;;;;;19.50;99.90;;;;;;5029958;28;19924;-77
2023/05/05 10:35:26;;;;;;;;;;;19.40;99.90;;;;;;5016601;28;19940;-78
2023/05/05 10:37:53;;;;;;;;;;;19.50;99.90;;;;;;5015935;28;19921;-78
2023/05/05 10:40:20;;;;;;;;;;;19.70;99.90;;;;;;5012334;28;20024;-78
2023/05/05 10:42:50;;;;;;;;;;;19.70;99.90;;;;;;5014037;28;20012;-78
2023/05/05 10:45:17;;;;;;;;;;;19.40;99.90;;;;;;5016172;28;19925;-78
2023/05/05 10:47:44;;;;;;;;;;;19.20;99.90;;;;;;5031982;28;19925;-80
2023/05/05 10:50:20;;;;;;;;;;;18.90;99.90;;;;;;5017459;28;19921;-77
2023/05/05 10:52:47;;;;;;;;;;;18.70;99.90;;;;;;5015543;28;19925;-79
2023/05/05 10:55:20;;;;;;;;;;;18.70;99.90;;;;;;5013305;28;19929;-78
2023/05/05 10:57:51;;;;;;;;;;;18.60;99.90;;;;;;5013108;28;19921;-79
2023/05/05 11:00:37;;;;;;;;;;;18.80;99.90;;;;;;5016894;28;19971;-78
2023/05/05 11:03:15;;;;;;;;;;;19.10;99.90;;;;;;5013934;28;19924;-79
2023/05/05 11:06:01;;;;;;;;;;;19.70;99.90;;;;;;5016262;28;19972;-79
2023/05/05 11:08:27;;;;;;;;;;;19.90;99.90;;;;;;5012054;28;19920;-79
2023/05/05 11:10:54;;;;;;;;;;;20.00;99.90;;;;;;5018857;28;19929;-79
2023/05/05 11:13:21;;;;;;;;;;;20.30;99.90;;;;;;5012276;28;19965;-79
2023/05/05 11:15:52;;;;;;;;;;;20.30;99.90;;;;;;5014439;28;20344;-78
2023/05/05 11:18:35;;;;;;;;;;;20.10;99.90;;;;;;5016047;28;20435;-78
2023/05/05 11:21:14;;;;;;;;;;;20.40;99.90;;;;;;5015518;28;19929;-78
2023/05/05 11:23:50;;;;;;;;;;;21.00;99.90;;;;;;5013991;28;19925;-78
2023/05/05 11:26:18;;;;;;;;;;;21.00;99.90;;;;;;4995143;28;19925;-78
2023/05/05 11:28:54;;;;;;;;;;;21.20;99.90;;;;;;5014796;28;19979;-78
2023/05/05 11:31:21;;;;;;;;;;;21.40;99.90;;;;;;5012300;28;19929;-78
2023/05/05 11:33:48;;;;;;;;;;;21.50;99.90;;;;;;5023525;28;19981;-79
2023/05/05 11:36:15;;;;;;;;;;;21.30;99.90;;;;;;5016677;28;20024;-80
2023/05/05 11:39:00;;;;;;;;;;;21.10;99.90;;;;;;5016948;28;19983;-80
2023/05/05 11:41:27;;;;;;;;;;;20.90;99.90;;;;;;5010636;28;20024;-79
2023/05/05 11:44:09;;;;;;;;;;;20.70;99.90;;;;;;5019693;28;19929;-79
2023/05/05 11:46:36;;;;;;;;;;;20.70;99.90;;;;;;5036894;28;19941;-79
2023/05/05 11:49:03;;;;;;;;;;;20.80;99.90;;;;;;5016431;28;19943;-79
2023/05/05 11:51:30;;;;;;;;;;;20.90;99.90;;;;;;5015768;28;19947;-80
2023/05/05 11:53:57;;;;;;;;;;;21.30;99.90;;;;;;5016123;28;20023;-79
2023/05/05 11:56:25;;;;;;;;;;;21.60;99.90;;;;;;5003074;28;19928;-79
2023/05/05 11:59:08;;;;;;;;;;;21.60;99.90;;;;;;5018935;28;19937;-78
2023/05/05 12:01:38;;;;;;;;;;;21.80;99.90;;;;;;5017670;28;20007;-80
2023/05/05 12:04:05;;;;;;;;;;;22.30;99.90;;;;;;5017480;28;19929;-79
2023/05/05 12:06:32;;;;;;;;;;;22.30;99.90;;;;;;5019835;28;19925;-79
2023/05/05 12:08:59;;;;;;;;;;;22.30;99.90;;;;;;5017611;28;19941;-79
2023/05/05 12:11:26;;;;;;;;;;;22.50;99.90;;;;;;5019800;28;19928;-79
2023/05/05 12:14:09;;;;;;;;;;;23.00;99.80;;;;;;5015110;28;19925;-79
2023/05/05 12:16:36;;;;;;;;;;;22.90;98.70;;;;;;5017721;28;20310;-79
2023/05/05 12:19:04;;;;;;;;;;;23.10;99.00;;;;;;5033239;28;19939;-80
2023/05/05 12:21:31;;;;;;;;;;;23.10;97.90;;;;;;5015072;28;19994;-80
2023/05/05 12:23:58;;;;;;;;;;;22.70;98.70;;;;;;4996427;28;19932;-79
2023/05/05 12:26:26;;;;;;;;;;;22.80;98.80;;;;;;5012502;28;20368;-80
2023/05/05 12:28:53;;;;;;;;;;;22.80;99.00;;;;;;5018854;28;20598;-80
2023/05/05 12:31:20;;;;;;;;;;;23.30;99.20;;;;;;5017363;28;19925;-80
2023/05/05 12:33:47;;;;;;;;;;;23.90;98.20;;;;;;5017370;28;20008;-80
2023/05/05 12:36:14;;;;;;;;;;;24.30;97.10;;;;;;5017487;28;19929;-80
2023/05/05 12:38:41;;;;;;;;;;;24.80;97.20;;;;;;5017161;28;19925;-81
2023/05/05 12:41:07;;;;;;;;;;;25.00;96.50;;;;;;5014524;28;19952;-80
2023/05/05 12:43:34;;;;;;;;;;;25.20;96.00;;;;;;5014439;28;19936;-79
2023/05/05 12:46:07;;;;;;;;;;;24.70;96.00;;;;;;5032303;28;19929;-80
2023/05/05 12:48:35;;;;;;;;;;;24.50;96.20;;;;;;5016620;28;19966;-80
2023/05/05 12:51:17;;;;;;;;;;;24.30;96.90;;;;;;5005218;28;19927;-79
2023/05/05 12:53:44;;;;;;;;;;;24.10;97.40;;;;;;5016074;28;19925;-80
2023/05/05 12:56:29;;;;;;;;;;;23.80;97.30;;;;;;5011900;28;20403;-80
2023/05/05 12:58:56;;;;;;;;;;;23.80;98.00;;;;;;5009764;28;20368;-80
2023/05/05 13:01:23;;;;;;;;;;;24.20;97.50;;;;;;5015492;28;19994;-80
2023/05/05 13:04:22;;;;;;;;;;;23.90;97.00;;;;;;5015096;28;20493;-80
2023/05/05 13:06:50;;;;;;;;;;;23.20;96.80;;;;;;4997471;28;20387;-80
2023/05/05 13:09:23;;;;;;;;;;;22.90;97.00;;;;;;5033782;28;19932;-79
2023/05/05 13:11:50;;;;;;;;;;;22.90;97.70;;;;;;5030500;28;20039;-79
2023/05/05 13:14:17;;;;;;;;;;;22.90;97.20;;;;;;5018051;28;20348;-79
2023/05/05 13:16:43;;;;;;;;;;;23.20;96.60;;;;;;5011501;28;20790;-79
2023/05/05 13:19:10;;;;;;;;;;;23.80;96.40;;;;;;5005408;28;19925;-79
2023/05/05 13:21:37;;;;;;;;;;;24.80;96.00;;;;;;5023587;28;19925;-80
2023/05/05 13:24:04;;;;;;;;;;;25.70;95.10;;;;;;5017139;28;19952;-79
2023/05/05 13:26:54;;;;;;;;;;;26.60;95.10;;;;;;5017320;28;20020;-79
2023/05/05 13:29:21;;;;;;;;;;;26.30;92.90;;;;;;5015573;28;19935;-79
2023/05/05 13:31:52;;;;;;;;;;;25.30;94.30;;;;;;5015733;28;20365;-80
2023/05/05 13:34:19;;;;;;;;;;;24.30;94.90;;;;;;5016384;28;19971;-80
2023/05/05 13:36:46;;;;;;;;;;;23.80;95.70;;;;;;5012172;28;19929;-79
2023/05/05 13:39:13;;;;;;;;;;;24.60;95.50;;;;;;5013312;28;19968;-79
2023/05/05 13:41:39;;;;;;;;;;;25.40;94.30;;;;;;5013647;28;19940;-80
2023/05/05 13:44:06;;;;;;;;;;;26.10;93.70;;;;;;5014294;28;19924;-80
2023/05/05 13:46:33;;;;;;;;;;;26.70;92.60;;;;;;5016390;28;20019;-79
2023/05/05 13:49:00;;;;;;;;;;;26.40;92.10;;;;;;5014626;28;19955;-79
2023/05/05 13:51:26;;;;;;;;;;;26.00;92.20;;;;;;5012447;28;20275;-78
2023/05/05 13:53:53;;;;;;;;;;;25.60;92.50;;;;;;5015768;28;19932;-77
2023/05/05 13:56:22;;;;;;;;;;;25.80;93.00;;;;;;5015155;28;19925;-78
2023/05/05 13:58:49;;;;;;;;;;;25.30;92.70;;;;;;5017773;28;20688;-77
2023/05/05 14:01:15;;;;;;;;;;;25.20;93.00;;;;;;5023181;28;19925;-78
2023/05/05 14:03:42;;;;;;;;;;;25.40;92.30;;;;;;5016929;28;20000;-78
2023/05/05 14:06:09;;;;;;;;;;;24.70;92.50;;;;;;5013559;28;20055;-78
2023/05/05 14:08:36;;;;;;;;;;;24.10;92.80;;;;;;5010583;28;19929;-78
2023/05/05 14:11:02;;;;;;;;;;;23.70;94.10;;;;;;5006817;28;20023;-78
2023/05/05 14:13:29;;;;;;;;;;;23.80;94.30;;;;;;5010917;28;19996;-79
2023/05/05 14:15:57;;;;;;;;;;;24.60;93.50;;;;;;5020573;28;19925;-79
2023/05/05 14:18:24;;;;;;;;;;;25.30;92.20;;;;;;5033559;28;19928;-80
2023/05/05 14:20:50;;;;;;;;;;;26.40;91.60;;;;;;5012247;28;20036;-79
2023/05/05 14:23:17;;;;;;;;;;;26.50;92.00;;;;;;5018986;28;19961;-79
2023/05/05 14:25:44;;;;;;;;;;;26.40;90.80;;;;;;5004695;28;20624;-79
2023/05/05 14:28:10;;;;;;;;;;;26.00;91.60;;;;;;5001822;28;19947;-79